Time;durP1;ratioP1;P1;durP2;ratioP2;P2;SDS_P1;SDS_P2;PMS_P1;PMS_P2;Temp;Humidity;BMP_temperature;BMP_pressure;BME280_temperature;BME280_humidity;BME280_pressure;Samples;Min_cycle;Max_cycle;Signal;HPM_P1;HPM_P2
2022/07/15 00:01:06;;;;;;;;;;;;;;;15.00;87.86;100042.23;1772821;81;20610;-80
2022/07/15 00:04:04;;;;;;;;;;;;;;;14.96;88.28;100035.98;1774517;81;20195;-80
2022/07/15 00:07:10;;;;;;;;;;;;;;;14.93;88.63;100040.03;1774055;81;20215;-79
2022/07/15 00:10:18;;;;;;;;;;;;;;;14.90;89.04;100030.80;1773636;81;20234;-79
2022/07/15 00:13:24;;;;;;;;;;;;;;;14.89;89.48;100035.16;1773068;81;20171;-80
2022/07/15 00:16:28;;;;;;;;;;;;;;;14.86;89.88;100031.44;1774421;81;20243;-80
2022/07/15 00:19:33;;;;;;;;;;;;;;;14.83;90.02;100033.56;1774448;81;20602;-80
2022/07/15 00:22:37;;;;;;;;;;;;;;;14.80;89.47;100033.13;1773877;81;20587;-80
2022/07/15 00:25:41;;;;;;;;;;;;;;;14.75;88.88;100031.55;1774758;81;20175;-80
2022/07/15 00:28:46;;;;;;;;;;;;;;;14.71;89.33;100025.59;1773018;81;20269;-80
2022/07/15 00:31:51;;;;;;;;;;;;;;;14.70;90.37;100024.45;1774303;81;20227;-80
2022/07/15 00:34:56;;;;;;;;;;;;;;;14.69;91.02;100024.13;1772825;81;20203;-80
2022/07/15 00:38:01;;;;;;;;;;;;;;;14.67;91.62;100024.86;1772481;81;20187;-80
2022/07/15 00:41:07;;;;;;;;;;;;;;;14.68;92.04;100025.16;1773101;81;20601;-80
2022/07/15 00:44:11;;;;;;;;;;;;;;;14.67;92.13;100024.32;1774549;81;20634;-80
2022/07/15 00:47:15;;;;;;;;;;;;;;;14.68;92.19;100023.79;1774144;81;20234;-79
2022/07/15 00:50:21;;;;;;;;;;;;;;;14.67;92.02;100012.47;1773039;81;20199;-79
2022/07/15 00:53:26;;;;;;;;;;;;;;;14.66;91.57;100014.38;1774548;81;20199;-79
2022/07/15 00:56:31;;;;;;;;;;;;;;;14.67;90.88;100018.81;1772110;81;20203;-79
2022/07/15 00:59:38;;;;;;;;;;;;;;;14.63;90.42;100017.53;1774108;81;20230;-79
2022/07/15 01:02:37;;;;;;;;;;;;;;;14.60;90.57;100013.00;1774638;81;20202;-79
2022/07/15 01:05:42;;;;;;;;;;;;;;;14.59;90.95;100014.91;1774512;81;20195;-79
2022/07/15 01:08:48;;;;;;;;;;;;;;;14.56;91.47;100004.31;1774396;81;20196;-79
2022/07/15 01:11:51;;;;;;;;;;;;;;;14.54;91.66;100007.28;1773850;81;20682;-80
2022/07/15 01:14:56;;;;;;;;;;;;;;;14.54;91.86;100001.78;1774302;81;20199;-79
2022/07/15 01:18:01;;;;;;;;;;;;;;;14.55;92.08;100005.38;1773461;81;20243;-79
2022/07/15 01:21:06;;;;;;;;;;;;;;;14.55;92.07;99996.59;1773555;81;20188;-79
2022/07/15 01:24:14;;;;;;;;;;;;;;;14.55;91.95;99999.34;1774704;81;20199;-79
2022/07/15 01:27:21;;;;;;;;;;;;;;;14.53;91.99;99997.30;1772919;81;20642;-80
2022/07/15 01:30:26;;;;;;;;;;;;;;;14.51;91.64;100003.56;1772837;81;20358;-79
2022/07/15 01:33:24;;;;;;;;;;;;;;;14.46;91.48;99997.81;1772767;81;20239;-80
2022/07/15 01:36:28;;;;;;;;;;;;;;;14.42;91.13;99996.53;1774099;81;20203;-80
2022/07/15 01:39:33;;;;;;;;;;;;;;;14.38;91.19;99993.87;1774657;81;20183;-79
2022/07/15 01:42:37;;;;;;;;;;;;;;;14.37;91.52;99991.34;1774754;81;20207;-79
2022/07/15 01:45:42;;;;;;;;;;;;;;;14.38;91.51;99993.02;1774476;81;20191;-79
2022/07/15 01:52:12;;;;;;;;;;;;;;;14.41;91.99;99992.09;1772720;81;20199;-78
2022/07/15 01:55:16;;;;;;;;;;;;;;;14.41;92.27;99992.63;1774588;81;20250;-80
2022/07/15 01:58:21;;;;;;;;;;;;;;;14.41;92.24;99992.09;1760491;81;20176;-79
2022/07/15 02:01:26;;;;;;;;;;;;;;;14.42;92.16;99992.94;1760583;81;20599;-79
2022/07/15 02:04:34;;;;;;;;;;;;;;;14.45;91.92;99991.99;1761781;81;20215;-79
2022/07/15 02:07:38;;;;;;;;;;;;;;;14.46;91.38;99995.05;1761779;81;20226;-79
2022/07/15 02:10:42;;;;;;;;;;;;;;;14.48;91.18;99997.09;1761499;81;20195;-79
2022/07/15 02:13:48;;;;;;;;;;;;;;;14.54;91.23;99989.39;1760282;81;20611;-79
2022/07/15 02:16:53;;;;;;;;;;;;;;;14.69;90.74;100002.11;1761569;81;20563;-79
2022/07/15 02:20:00;;;;;;;;;;;;;;;14.88;89.25;99995.77;1761906;81;20220;-80
2022/07/15 02:23:06;;;;;;;;;;;;;;;15.14;87.51;99994.03;1761246;81;20231;-80
2022/07/15 02:26:12;;;;;;;;;;;;;;;15.48;85.79;99994.28;1761574;81;20203;-79
2022/07/15 02:29:20;;;;;;;;;;;;;;;15.85;84.40;99992.71;1759974;81;20235;-78
2022/07/15 02:32:25;;;;;;;;;;;;;;;16.27;82.51;100002.27;1759859;81;20594;-79
2022/07/15 02:35:31;;;;;;;;;;;;;;;16.67;81.02;100003.41;1760171;81;20207;-79
2022/07/15 02:38:35;;;;;;;;;;;;;;;17.12;79.76;99992.22;1761479;81;20192;-80
2022/07/15 02:41:39;;;;;;;;;;;;;;;17.65;78.63;99996.38;1760917;81;20184;-80
2022/07/15 02:44:44;;;;;;;;;;;;;;;18.14;76.92;99996.20;1761543;81;20183;-80
2022/07/15 02:47:49;;;;;;;;;;;;;;;18.63;75.04;99997.00;1759812;81;20191;-80
2022/07/15 02:50:57;;;;;;;;;;;;;;;19.09;73.01;99996.79;1759942;81;20172;-80
2022/07/15 02:54:02;;;;;;;;;;;;;;;19.47;70.81;100002.95;1761130;81;20195;-80
2022/07/15 02:57:07;;;;;;;;;;;;;;;19.81;68.68;100004.89;1764771;81;20183;-80
2022/07/15 03:00:13;;;;;;;;;;;;;;;20.15;67.01;100001.70;1774553;81;20202;-80
2022/07/15 03:03:21;;;;;;;;;;;;;;;20.45;65.50;100004.78;1773088;81;20231;-79
2022/07/15 03:06:26;;;;;;;;;;;;;;;20.71;64.90;100002.53;1774252;81;20207;-79
2022/07/15 03:09:35;;;;;;;;;;;;;;;21.00;64.49;100007.48;1772815;81;20191;-80
2022/07/15 03:12:39;;;;;;;;;;;;;;;21.28;63.87;100005.16;1773220;81;20638;-79
2022/07/15 03:15:45;;;;;;;;;;;;;;;21.51;63.42;100007.77;1774283;81;20211;-81
2022/07/15 03:18:49;;;;;;;;;;;;;;;21.71;62.80;100007.22;1772626;81;20167;-80
2022/07/15 03:21:55;;;;;;;;;;;;;;;21.85;62.60;100011.86;1774032;81;20207;-79
2022/07/15 03:25:00;;;;;;;;;;;;;;;21.83;62.74;100016.31;1774778;81;20195;-80
2022/07/15 03:28:03;;;;;;;;;;;;;;;21.82;63.25;100014.59;1773462;81;20208;-79
2022/07/15 03:31:08;;;;;;;;;;;;;;;21.89;63.91;100024.17;1774252;81;20611;-80
2022/07/15 03:34:14;;;;;;;;;;;;;;;22.04;64.25;100020.75;1774377;81;20195;-80
2022/07/15 03:37:19;;;;;;;;;;;;;;;22.24;64.43;100011.27;1773672;81;20207;-80
2022/07/15 03:40:25;;;;;;;;;;;;;;;22.48;64.45;100016.00;1774557;81;20234;-80
2022/07/15 03:43:30;;;;;;;;;;;;;;;22.75;64.26;100020.19;1773249;81;20202;-80
2022/07/15 03:46:36;;;;;;;;;;;;;;;22.95;64.00;100026.55;1772905;81;20621;-80
2022/07/15 03:49:33;;;;;;;;;;;;;;;23.13;63.79;100026.16;1774260;81;20183;-80
2022/07/15 03:52:39;;;;;;;;;;;;;;;23.31;63.73;100023.52;1773330;81;20199;-80
2022/07/15 03:55:44;;;;;;;;;;;;;;;23.38;63.66;100025.53;1774418;81;20219;-79
2022/07/15 03:58:48;;;;;;;;;;;;;;;23.45;63.78;100019.16;1771882;81;20210;-80
2022/07/15 04:01:53;;;;;;;;;;;;;;;23.41;64.45;100018.00;1774399;81;20258;-80
2022/07/15 04:04:58;;;;;;;;;;;;;;;23.33;65.06;100024.63;1774598;81;20195;-80
2022/07/15 04:08:03;;;;;;;;;;;;;;;23.24;65.63;100020.66;1773130;81;20203;-80
2022/07/15 04:11:09;;;;;;;;;;;;;;;23.13;66.49;100021.97;1748155;81;20199;-80
2022/07/15 04:14:15;;;;;;;;;;;;;;;23.03;67.33;100017.70;1774373;81;20566;-80
2022/07/15 04:17:21;;;;;;;;;;;;;;;22.92;68.13;100020.96;1773803;81;20214;-80
2022/07/15 04:20:26;;;;;;;;;;;;;;;22.89;68.87;100018.69;1772766;81;20215;-80
2022/07/15 04:23:31;;;;;;;;;;;;;;;23.01;68.88;100021.32;1772924;81;20202;-80
2022/07/15 04:26:37;;;;;;;;;;;;;;;23.13;68.81;100020.57;1774597;81;20610;-80
2022/07/15 04:29:40;;;;;;;;;;;;;;;23.24;69.03;100023.44;1770581;81;20620;-80
2022/07/15 04:32:44;;;;;;;;;;;;;;;23.38;69.00;100017.69;1761015;81;20202;-80
2022/07/15 04:35:50;;;;;;;;;;;;;;;23.57;68.96;100015.31;1730290;83;20201;-80
2022/07/15 04:38:56;;;;;;;;;;;;;;;23.73;68.49;100016.30;1760511;81;20190;-80
2022/07/15 04:42:00;;;;;;;;;;;;;;;23.93;68.16;100015.00;1730064;83;20582;-81
2022/07/15 04:45:06;;;;;;;;;;;;;;;24.13;67.70;100014.25;1747248;81;20249;-80
2022/07/15 04:51:34;;;;;;;;;;;;;;;24.50;66.48;100014.13;1761977;81;20174;-81
2022/07/15 04:54:38;;;;;;;;;;;;;;;24.72;65.48;100013.35;1761545;81;20202;-80
2022/07/15 04:57:43;;;;;;;;;;;;;;;24.92;64.87;100018.69;1761138;81;20207;-80
2022/07/15 05:00:49;;;;;;;;;;;;;;;25.07;64.01;100022.05;1735235;81;20213;-80
2022/07/15 05:03:55;;;;;;;;;;;;;;;25.18;63.22;100023.78;1743997;82;20237;-80
2022/07/15 05:06:59;;;;;;;;;;;;;;;25.36;62.84;100026.02;1745259;82;20609;-80
2022/07/15 05:10:06;;;;;;;;;;;;;;;25.53;62.23;100024.30;1744719;82;20213;-80
2022/07/15 05:13:16;;;;;;;;;;;;;;;25.72;61.53;100030.98;1744489;82;20217;-80
2022/07/15 05:16:21;;;;;;;;;;;;;;;25.89;59.38;100028.47;1769806;81;20583;-80
2022/07/15 05:19:27;;;;;;;;;;;;;;;25.97;57.75;100025.06;1760471;81;20592;-81
2022/07/15 05:22:28;;;;;;;;;;;;;;;26.05;58.24;100027.85;1770265;81;20211;-81
2022/07/15 05:25:33;;;;;;;;;;;;;;;26.13;58.46;100025.88;1771213;81;20203;-81
2022/07/15 05:28:38;;;;;;;;;;;;;;;26.29;58.41;100034.48;1760597;81;20232;-81
2022/07/15 05:31:43;;;;;;;;;;;;;;;26.38;58.45;100031.35;1771112;81;20223;-81
2022/07/15 05:34:47;;;;;;;;;;;;;;;26.56;57.33;100029.90;1771358;81;20171;-81
2022/07/15 05:37:54;;;;;;;;;;;;;;;26.74;55.69;100032.03;1771436;81;20665;-80
2022/07/15 05:40:58;;;;;;;;;;;;;;;26.94;54.88;100031.62;1771409;81;20646;-81
2022/07/15 05:44:03;;;;;;;;;;;;;;;27.14;54.16;100035.70;1768959;81;20983;-81
2022/07/15 05:47:09;;;;;;;;;;;;;;;27.30;53.19;100026.60;1760619;81;20171;-80
2022/07/15 05:50:15;;;;;;;;;;;;;;;27.47;52.41;100025.58;1760973;81;20214;-81
2022/07/15 05:53:22;;;;;;;;;;;;;;;27.62;51.05;100030.78;1759584;81;20190;-79
2022/07/15 05:56:28;;;;;;;;;;;;;;;27.68;49.45;100032.42;1759911;81;20225;-79
2022/07/15 05:59:33;;;;;;;;;;;;;;;27.81;48.89;100027.55;1758518;81;20605;-80
2022/07/15 06:02:39;;;;;;;;;;;;;;;27.97;49.20;100037.47;1760020;81;20629;-81
2022/07/15 06:05:46;;;;;;;;;;;;;;;28.15;48.91;100032.21;1760891;81;20234;-81
2022/07/15 06:08:53;;;;;;;;;;;;;;;28.28;47.89;100036.55;1759340;81;20219;-80
2022/07/15 06:11:58;;;;;;;;;;;;;;;28.40;47.03;100036.70;1759547;81;20203;-81
2022/07/15 06:15:03;;;;;;;;;;;;;;;28.48;45.87;100038.27;1765150;81;20587;-81
2022/07/15 06:18:07;;;;;;;;;;;;;;;28.60;46.42;100039.80;1740484;81;20209;-81
2022/07/15 06:21:14;;;;;;;;;;;;;;;28.73;45.21;100039.89;1708694;84;20627;-80
2022/07/15 06:24:19;;;;;;;;;;;;;;;28.90;45.88;100039.95;1726349;83;20204;-80
2022/07/15 06:27:23;;;;;;;;;;;;;;;28.98;44.83;100042.94;1707327;84;20208;-80
2022/07/15 06:30:28;;;;;;;;;;;;;;;28.97;43.44;100047.45;1725771;83;20210;-79
2022/07/15 06:33:32;;;;;;;;;;;;;;;28.98;44.29;100040.13;1759396;81;20621;-80
2022/07/15 06:36:32;;;;;;;;;;;;;;;29.06;42.67;100045.62;1759759;81;20199;-81
2022/07/15 06:39:36;;;;;;;;;;;;;;;29.12;41.23;100041.57;1759771;81;20654;-81
2022/07/15 06:42:41;;;;;;;;;;;;;;;29.14;39.84;100037.89;1759741;81;20240;-81
2022/07/15 06:45:51;;;;;;;;;;;;;;;29.17;36.14;100042.06;1758554;81;20499;-81
2022/07/15 06:48:55;;;;;;;;;;;;;;;29.18;35.75;100036.72;1759496;81;20191;-81
2022/07/15 06:52:00;;;;;;;;;;;;;;;29.29;36.45;100046.66;1760718;81;20190;-80
2022/07/15 06:55:04;;;;;;;;;;;;;;;29.42;36.90;100039.41;1760199;81;20199;-81
2022/07/15 06:58:10;;;;;;;;;;;;;;;29.47;36.26;100034.52;1760271;81;20195;-81
2022/07/15 07:01:13;;;;;;;;;;;;;;;29.54;36.48;100038.33;1754018;81;20484;-81
2022/07/15 07:04:19;;;;;;;;;;;;;;;29.61;34.93;100043.03;1745275;82;20205;-81
2022/07/15 07:07:23;;;;;;;;;;;;;;;29.65;34.91;100046.91;1744904;82;20600;-80
2022/07/15 07:10:26;;;;;;;;;;;;;;;29.70;35.09;100044.58;1745171;82;20190;-80
2022/07/15 07:13:34;;;;;;;;;;;;;;;29.75;34.44;100047.30;1744027;81;20209;-80
2022/07/15 07:16:40;;;;;;;;;;;;;;;29.74;34.15;100044.22;1745395;82;20628;-79
2022/07/15 07:19:44;;;;;;;;;;;;;;;29.77;33.46;100044.98;1745491;82;20201;-79
2022/07/15 07:22:50;;;;;;;;;;;;;;;29.83;33.93;100042.91;1744422;82;20540;-80
2022/07/15 07:26:03;;;;;;;;;;;;;;;29.90;33.07;100041.36;1744356;82;20609;-80
2022/07/15 07:29:09;;;;;;;;;;;;;;;29.96;33.24;100039.27;1742687;82;20465;-80
2022/07/15 07:32:12;;;;;;;;;;;;;;;29.93;32.79;100041.33;1711219;84;20204;-80
2022/07/15 07:35:16;;;;;;;;;;;;;;;29.93;32.71;100041.33;1710551;84;20204;-80
2022/07/15 07:38:21;;;;;;;;;;;;;;;30.02;33.09;100036.06;1710192;84;20227;-80
2022/07/15 07:41:27;;;;;;;;;;;;;;;30.18;33.08;100031.54;1711537;84;20555;-80
2022/07/15 07:44:32;;;;;;;;;;;;;;;30.32;33.15;100032.95;1711258;83;20235;-81
2022/07/15 07:47:39;;;;;;;;;;;;;;;30.38;32.72;100034.50;1714365;83;20219;-80
2022/07/15 07:50:45;;;;;;;;;;;;;;;30.40;31.28;100031.64;1714928;83;20522;-81
2022/07/15 07:53:48;;;;;;;;;;;;;;;30.34;32.42;100036.27;1715481;83;20210;-81
2022/07/15 07:56:53;;;;;;;;;;;;;;;30.37;32.61;100025.78;1715266;83;20223;-80
2022/07/15 07:59:57;;;;;;;;;;;;;;;30.44;31.30;100024.22;1715526;83;20249;-81
2022/07/15 08:03:04;;;;;;;;;;;;;;;30.58;31.09;100033.21;1713167;83;20184;-81
2022/07/15 08:06:07;;;;;;;;;;;;;;;30.65;30.40;100032.22;1715895;83;20224;-81
2022/07/15 08:09:12;;;;;;;;;;;;;;;30.58;29.93;100023.33;1740111;81;20585;-81
2022/07/15 08:12:18;;;;;;;;;;;;;;;30.53;30.61;100020.05;1775682;81;20199;-81
2022/07/15 08:15:22;;;;;;;;;;;;;;;30.61;32.08;100025.53;1757654;81;20205;-81
2022/07/15 08:18:28;;;;;;;;;;;;;;;30.67;31.12;100018.03;1744737;82;20201;-81
2022/07/15 08:21:33;;;;;;;;;;;;;;;30.70;30.95;100020.23;1744568;82;20205;-80
2022/07/15 08:24:36;;;;;;;;;;;;;;;30.70;30.75;100018.82;1745272;82;20189;-81
2022/07/15 08:27:41;;;;;;;;;;;;;;;30.69;30.36;100012.92;1743566;82;20244;-80
2022/07/15 08:30:47;;;;;;;;;;;;;;;30.69;31.40;100012.09;1746483;82;20621;-81
2022/07/15 08:33:53;;;;;;;;;;;;;;;30.60;31.27;100014.83;1745737;81;20209;-81
2022/07/15 08:36:57;;;;;;;;;;;;;;;30.59;30.41;100013.16;1747120;82;20201;-81
2022/07/15 08:40:02;;;;;;;;;;;;;;;30.52;30.35;100005.69;1747198;82;20217;-81
2022/07/15 08:43:05;;;;;;;;;;;;;;;30.45;30.58;100002.47;1746398;82;20208;-80
2022/07/15 08:46:10;;;;;;;;;;;;;;;30.44;30.90;100000.78;1718328;82;20688;-80
2022/07/15 08:49:19;;;;;;;;;;;;;;;30.48;31.94;100001.82;1717533;83;20209;-81
2022/07/15 08:52:24;;;;;;;;;;;;;;;30.50;30.97;100002.36;1716175;83;20558;-81
2022/07/15 08:55:30;;;;;;;;;;;;;;;30.45;30.94;99994.02;1716030;83;20233;-80
2022/07/15 08:58:36;;;;;;;;;;;;;;;30.38;31.50;99997.24;1716396;83;20190;-80
2022/07/15 09:01:43;;;;;;;;;;;;;;;30.26;31.78;99993.56;1715397;83;20182;-79
2022/07/15 09:05:27;;;;;;;;;;;;;;;30.19;32.39;99988.91;1730784;82;20225;-80
2022/07/15 09:08:31;;;;;;;;;;;;;;;30.19;32.73;99986.09;1750539;81;20500;-80
2022/07/15 09:11:38;;;;;;;;;;;;;;;30.28;32.91;99981.95;1751905;81;20193;-81
2022/07/15 09:14:45;;;;;;;;;;;;;;;30.35;34.05;99975.88;1733358;82;20618;-80
2022/07/15 09:17:49;;;;;;;;;;;;;;;30.37;32.66;99980.06;1684036;85;20209;-81
2022/07/15 09:20:53;;;;;;;;;;;;;;;30.41;32.22;99974.62;1684273;85;20205;-81
2022/07/15 09:23:57;;;;;;;;;;;;;;;30.42;32.35;99977.13;1683892;85;20237;-81
2022/07/15 09:27:01;;;;;;;;;;;;;;;30.41;32.95;99971.81;1683347;85;20194;-81
2022/07/15 09:36:43;;;;;;;;;;;;;;;30.45;31.35;99972.85;1613021;89;20224;-81
2022/07/15 09:39:50;;;;;;;;;;;;;;;30.28;31.58;99966.44;1652869;85;20633;-81
2022/07/15 09:43:09;;;;;;;;;;;;;;;30.28;32.03;99956.57;1671491;86;20248;-81
2022/07/15 09:46:14;;;;;;;;;;;;;;;30.38;32.53;99959.73;1699384;84;20199;-80
2022/07/15 09:49:33;;;;;;;;;;;;;;;30.50;32.88;99952.98;1692469;83;20243;-81
2022/07/15 09:52:37;;;;;;;;;;;;;;;30.54;32.24;99954.02;1716243;83;20216;-81
2022/07/15 09:55:41;;;;;;;;;;;;;;;30.53;32.09;99949.50;1679309;83;20243;-80
2022/07/15 09:58:45;;;;;;;;;;;;;;;30.55;31.94;99952.86;1716660;83;20187;-80
2022/07/15 10:01:50;;;;;;;;;;;;;;;30.56;30.57;99950.28;1716690;83;20208;-80
2022/07/15 10:04:55;;;;;;;;;;;;;;;30.54;30.99;99954.02;1736160;81;20240;-80
2022/07/15 10:08:01;;;;;;;;;;;;;;;30.46;30.73;99941.48;1746583;82;20195;-80
2022/07/15 10:11:07;;;;;;;;;;;;;;;30.49;31.62;99942.27;1760576;81;20227;-80
2022/07/15 10:14:29;;;;;;;;;;;;;;;30.62;31.61;99949.00;1776666;80;20979;-81
2022/07/15 10:17:40;;;;;;;;;;;;;;;30.69;30.95;99933.89;1755977;81;20219;-81
2022/07/15 10:21:01;;;;;;;;;;;;;;;30.73;30.73;99933.55;1757443;81;20617;-80
2022/07/15 10:24:23;;;;;;;;;;;;;;;30.58;29.37;99928.21;1756190;81;20613;-80
2022/07/15 10:27:40;;;;;;;;;;;;;;;30.28;30.17;99926.38;1756948;81;20278;-80
2022/07/15 10:30:44;;;;;;;;;;;;;;;30.17;30.37;99924.95;1755762;81;20244;-80
2022/07/15 10:33:49;;;;;;;;;;;;;;;30.12;30.31;99919.97;1755954;81;20255;-81
2022/07/15 10:36:58;;;;;;;;;;;;;;;30.09;30.56;99922.00;1755654;81;20188;-81
2022/07/15 10:40:06;;;;;;;;;;;;;;;30.22;31.00;99917.78;1757887;81;20201;-81
2022/07/15 10:43:10;;;;;;;;;;;;;;;30.42;31.23;99911.41;1758043;81;20200;-80
2022/07/15 10:46:26;;;;;;;;;;;;;;;30.63;31.28;99909.77;1746334;81;20201;-81
2022/07/15 10:49:33;;;;;;;;;;;;;;;30.83;30.80;99913.27;1745608;82;20589;-81
2022/07/15 10:52:40;;;;;;;;;;;;;;;31.02;31.20;99907.67;1745539;82;20205;-81
2022/07/15 10:55:45;;;;;;;;;;;;;;;31.25;30.16;99908.48;1745875;82;20445;-79
2022/07/15 10:58:53;;;;;;;;;;;;;;;31.38;30.35;99908.14;1743793;82;20185;-79
2022/07/15 11:02:12;;;;;;;;;;;;;;;31.44;29.54;99906.86;1744307;82;20218;-81
2022/07/15 11:05:24;;;;;;;;;;;;;;;31.43;28.52;99909.98;1748218;80;20209;-81
2022/07/15 11:08:47;;;;;;;;;;;;;;;31.27;28.56;99903.36;1740218;82;20240;-80
2022/07/15 11:11:53;;;;;;;;;;;;;;;31.19;29.04;99898.45;1741042;82;20209;-80
2022/07/15 11:15:14;;;;;;;;;;;;;;;31.07;29.14;99903.88;1735218;82;20201;-80
2022/07/15 11:18:18;;;;;;;;;;;;;;;30.93;29.16;99905.37;1728280;83;20245;-80
2022/07/15 11:21:23;;;;;;;;;;;;;;;30.89;29.67;99902.92;1726554;82;20625;-79
2022/07/15 11:24:26;;;;;;;;;;;;;;;31.01;30.18;99897.54;1728234;83;20209;-79
2022/07/15 11:27:25;;;;;;;;;;;;;;;31.20;29.84;99893.08;1727912;83;20229;-80
2022/07/15 11:30:19;;;;;;;;;;;;;;;31.37;29.96;99888.11;1745170;81;20204;-80
2022/07/15 11:33:29;;;;;;;;;;;;;;;31.49;29.51;99894.00;1737536;82;20197;-81
2022/07/15 11:36:30;;;;;;;;;;;;;;;31.63;30.32;99893.89;1758910;81;20228;-78
2022/07/15 11:39:35;;;;;;;;;;;;;;;31.78;30.06;99892.02;1758980;81;20583;-80
2022/07/15 11:45:56;;;;;;;;;;;;;;;31.97;29.05;99883.87;1733102;81;20183;-80
2022/07/15 11:49:01;;;;;;;;;;;;;;;32.07;29.00;99884.96;1736510;82;20217;-80
2022/07/15 11:52:07;;;;;;;;;;;;;;;32.13;28.96;99890.70;1740199;82;20206;-80
2022/07/15 11:55:13;;;;;;;;;;;;;;;32.08;28.52;99884.38;1738977;82;20228;-80
2022/07/15 11:58:18;;;;;;;;;;;;;;;31.96;28.02;99885.03;1739444;82;20201;-81
2022/07/15 12:01:23;;;;;;;;;;;;;;;31.85;27.97;99887.91;1740908;81;20500;-80
2022/07/15 12:04:31;;;;;;;;;;;;;;;31.79;28.36;99879.54;1727810;83;20202;-80
2022/07/15 12:07:53;;;;;;;;;;;;;;;31.85;27.69;99877.42;1725480;83;20670;-81
2022/07/15 12:10:57;;;;;;;;;;;;;;;31.88;27.72;99884.42;1726125;83;20190;-80
2022/07/15 12:14:14;;;;;;;;;;;;;;;31.71;27.56;99869.61;1724334;82;20202;-80
2022/07/15 12:17:19;;;;;;;;;;;;;;;31.53;27.58;99865.34;1724559;83;20583;-80
2022/07/15 12:20:25;;;;;;;;;;;;;;;31.37;27.95;99866.09;1724899;83;20223;-80
2022/07/15 12:23:30;;;;;;;;;;;;;;;31.27;28.23;99865.80;1723902;83;20223;-80
2022/07/15 12:26:34;;;;;;;;;;;;;;;31.30;28.73;99870.81;1725513;83;20937;-80
2022/07/15 12:29:39;;;;;;;;;;;;;;;31.36;28.89;99855.95;1723687;82;20235;-80
2022/07/15 12:32:46;;;;;;;;;;;;;;;31.46;29.11;99855.66;1723508;82;20500;-81
2022/07/15 12:35:50;;;;;;;;;;;;;;;31.53;29.42;99857.44;1724829;83;20186;-80
2022/07/15 12:39:13;;;;;;;;;;;;;;;31.50;29.04;99851.02;1723500;83;20611;-80
2022/07/15 12:42:22;;;;;;;;;;;;;;;31.51;29.44;99854.09;1724734;83;20658;-79
2022/07/15 12:45:37;;;;;;;;;;;;;;;31.44;29.04;99843.86;1727945;81;20187;-80
2022/07/15 12:48:42;;;;;;;;;;;;;;;31.42;29.38;99848.41;1773996;81;20215;-80
2022/07/15 12:51:47;;;;;;;;;;;;;;;31.40;29.11;99832.95;1738667;81;20205;-80
2022/07/15 12:54:53;;;;;;;;;;;;;;;31.33;28.24;99838.23;1744774;82;20241;-80
2022/07/15 12:57:57;;;;;;;;;;;;;;;31.28;29.34;99840.63;1742854;82;20205;-80
2022/07/15 13:01:15;;;;;;;;;;;;;;;31.25;28.75;99835.61;1744244;82;20189;-80
2022/07/15 13:04:19;;;;;;;;;;;;;;;31.23;28.34;99832.26;1744726;82;20194;-80
2022/07/15 13:07:24;;;;;;;;;;;;;;;31.17;28.45;99826.51;1742456;82;20259;-80
2022/07/15 13:10:30;;;;;;;;;;;;;;;31.03;29.16;99825.20;1729782;83;20201;-80
2022/07/15 13:13:37;;;;;;;;;;;;;;;30.92;29.25;99831.70;1728209;83;20185;-80
2022/07/15 13:16:42;;;;;;;;;;;;;;;30.84;29.39;99826.83;1729484;83;20220;-81
2022/07/15 13:19:46;;;;;;;;;;;;;;;30.80;29.63;99823.81;1728656;83;20477;-80
2022/07/15 13:22:50;;;;;;;;;;;;;;;30.69;29.32;99820.98;1729478;83;20192;-81
2022/07/15 13:25:55;;;;;;;;;;;;;;;30.60;29.28;99823.50;1728907;83;20196;-80
2022/07/15 13:28:59;;;;;;;;;;;;;;;30.53;29.52;99830.41;1729482;81;20197;-81
2022/07/15 13:32:04;;;;;;;;;;;;;;;30.46;29.56;99819.33;1760378;81;20197;-80
2022/07/15 13:35:10;;;;;;;;;;;;;;;30.40;29.67;99814.98;1760698;81;20232;-80
2022/07/15 13:38:15;;;;;;;;;;;;;;;30.38;29.64;99811.63;1759716;81;20236;-80
2022/07/15 13:41:19;;;;;;;;;;;;;;;30.37;30.25;99803.74;1760345;81;20204;-79
2022/07/15 13:44:24;;;;;;;;;;;;;;;30.39;31.08;99806.23;1760828;81;20188;-80
2022/07/15 13:47:30;;;;;;;;;;;;;;;30.48;31.24;99812.77;1760141;81;20201;-81
2022/07/15 13:53:59;;;;;;;;;;;;;;;30.67;31.17;99809.16;1759066;81;20208;-80
2022/07/15 13:57:04;;;;;;;;;;;;;;;30.72;30.83;99804.83;1760435;81;20188;-80
2022/07/15 14:00:11;;;;;;;;;;;;;;;30.73;30.37;99806.52;1760586;81;20204;-81
2022/07/15 14:03:16;;;;;;;;;;;;;;;30.74;30.28;99808.77;1760529;81;20652;-80
2022/07/15 14:06:21;;;;;;;;;;;;;;;30.76;30.39;99805.85;1760751;81;20872;-79
2022/07/15 14:09:25;;;;;;;;;;;;;;;30.76;29.90;99802.20;1757533;81;20193;-80
2022/07/15 14:12:30;;;;;;;;;;;;;;;30.77;29.76;99801.04;1757135;81;20201;-80
2022/07/15 14:15:36;;;;;;;;;;;;;;;30.76;30.61;99801.62;1749711;81;20177;-80
2022/07/15 14:18:50;;;;;;;;;;;;;;;30.76;30.65;99796.55;1745360;82;20197;-81
2022/07/15 14:21:51;;;;;;;;;;;;;;;30.73;30.84;99796.64;1745396;82;20585;-80
2022/07/15 14:24:55;;;;;;;;;;;;;;;30.69;30.58;99798.41;1745692;82;20194;-80
2022/07/15 14:28:00;;;;;;;;;;;;;;;30.63;30.44;99796.88;1743829;82;20210;-80
2022/07/15 14:31:05;;;;;;;;;;;;;;;30.57;30.91;99793.91;1744238;82;20190;-80
2022/07/15 14:34:11;;;;;;;;;;;;;;;30.51;30.52;99794.63;1745796;82;20676;-80
2022/07/15 14:37:17;;;;;;;;;;;;;;;30.42;30.78;99788.09;1744957;82;20617;-81
2022/07/15 14:40:22;;;;;;;;;;;;;;;30.35;30.96;99782.09;1744964;82;20660;-81
2022/07/15 14:43:27;;;;;;;;;;;;;;;30.28;31.31;99780.27;1744306;82;20205;-81
2022/07/15 14:46:31;;;;;;;;;;;;;;;30.22;31.78;99774.52;1744223;81;20206;-81
2022/07/15 14:49:37;;;;;;;;;;;;;;;30.12;31.38;99770.51;1745250;82;20582;-81
2022/07/15 14:52:40;;;;;;;;;;;;;;;30.03;31.33;99774.66;1745337;82;20220;-81
2022/07/15 14:55:45;;;;;;;;;;;;;;;29.94;31.35;99775.98;1746070;82;20561;-81
2022/07/15 14:58:50;;;;;;;;;;;;;;;29.84;31.45;99779.05;1744049;82;20639;-81
2022/07/15 15:01:54;;;;;;;;;;;;;;;29.74;31.48;99774.48;1727430;83;20250;-79
2022/07/15 15:04:59;;;;;;;;;;;;;;;29.66;31.66;99777.22;1727673;82;20183;-80
2022/07/15 15:08:04;;;;;;;;;;;;;;;29.62;31.87;99777.58;1726780;83;20193;-80
2022/07/15 15:11:09;;;;;;;;;;;;;;;29.56;31.63;99779.69;1717001;83;20211;-81
2022/07/15 15:14:14;;;;;;;;;;;;;;;29.50;31.87;99778.08;1716192;82;20381;-80
2022/07/15 15:17:18;;;;;;;;;;;;;;;29.46;32.04;99775.66;1715718;83;20168;-80
2022/07/15 15:20:23;;;;;;;;;;;;;;;29.41;31.88;99780.83;1715670;83;20188;-80
2022/07/15 15:23:28;;;;;;;;;;;;;;;29.37;31.97;99777.54;1715192;83;20224;-80
2022/07/15 15:26:32;;;;;;;;;;;;;;;29.30;32.27;99779.35;1716262;83;20196;-80
2022/07/15 15:29:37;;;;;;;;;;;;;;;29.25;32.56;99776.06;1716387;83;20179;-80
2022/07/15 15:32:42;;;;;;;;;;;;;;;29.21;32.56;99777.84;1715855;83;20480;-80
2022/07/15 15:35:47;;;;;;;;;;;;;;;29.15;32.47;99770.65;1716292;83;20575;-79
2022/07/15 15:38:55;;;;;;;;;;;;;;;29.11;32.14;99775.81;1714742;83;20207;-80
2022/07/15 15:41:59;;;;;;;;;;;;;;;29.03;32.51;99772.59;1714914;83;20176;-80
2022/07/15 15:45:04;;;;;;;;;;;;;;;28.96;32.50;99773.56;1716347;83;20216;-81
2022/07/15 15:48:10;;;;;;;;;;;;;;;28.91;32.66;99767.17;1715000;83;20199;-80
2022/07/15 15:51:16;;;;;;;;;;;;;;;28.84;32.86;99764.75;1715464;83;20199;-80
2022/07/15 15:54:20;;;;;;;;;;;;;;;28.80;32.82;99764.30;1715077;83;20200;-81
2022/07/15 15:57:25;;;;;;;;;;;;;;;28.74;32.99;99774.22;1715919;83;20204;-81
2022/07/15 16:00:30;;;;;;;;;;;;;;;28.69;33.16;99774.31;1715863;83;20603;-81
2022/07/15 16:03:34;;;;;;;;;;;;;;;28.66;33.17;99774.95;1715021;83;20203;-81
2022/07/15 16:06:38;;;;;;;;;;;;;;;28.61;33.48;99779.84;1716214;83;20200;-80
2022/07/15 16:09:44;;;;;;;;;;;;;;;28.56;33.63;99782.72;1716264;83;20211;-80
2022/07/15 16:12:49;;;;;;;;;;;;;;;28.48;33.49;99787.09;1699073;84;20205;-80
2022/07/15 16:15:53;;;;;;;;;;;;;;;28.44;33.73;99790.25;1701556;83;20526;-80
2022/07/15 16:18:58;;;;;;;;;;;;;;;28.38;33.62;99785.88;1701827;84;20201;-80
2022/07/15 16:25:35;;;;;;;;;;;;;;;28.26;33.86;99790.52;1701988;84;20201;-80